createdAt,value
2023-03-17T00:00:47.112Z,4.90
2023-03-17T00:03:50.379Z,4.57
2023-03-17T00:06:54.974Z,4.40
2023-03-17T00:09:57.500Z,3.83
2023-03-17T00:13:00.076Z,3.97
2023-03-17T00:16:04.395Z,3.23
2023-03-17T00:19:07.582Z,3.60
2023-03-17T00:22:16.637Z,3.03
2023-03-17T00:25:23.226Z,3.40
2023-03-17T00:28:27.170Z,2.90
2023-03-17T00:31:30.608Z,2.77
2023-03-17T00:34:34.311Z,3.20
2023-03-17T00:37:39.619Z,3.50
2023-03-17T00:40:42.288Z,3.57
2023-03-17T00:43:45.548Z,4.57
2023-03-17T00:46:48.297Z,3.67
2023-03-17T00:49:51.090Z,3.50
2023-03-17T00:52:57.550Z,3.30
2023-03-17T00:56:00.479Z,3.40
2023-03-17T00:59:03.818Z,3.08
2023-03-17T01:02:07.112Z,2.88
2023-03-17T01:05:10.584Z,3.67
2023-03-17T01:08:14.894Z,3.30
2023-03-17T01:11:19.509Z,3.27
2023-03-17T01:14:22.506Z,3.60
2023-03-17T01:17:25.084Z,3.63
2023-03-17T01:20:29.684Z,3.30
2023-03-17T01:23:33.928Z,3.70
2023-03-17T01:26:36.636Z,3.53
2023-03-17T01:29:39.484Z,3.70
2023-03-17T01:32:42.018Z,3.10
2023-03-17T01:35:46.027Z,4.20
2023-03-17T01:38:50.904Z,3.23
2023-03-17T01:41:56.911Z,3.03
2023-03-17T01:45:01.894Z,3.27
2023-03-17T01:48:04.640Z,3.77
2023-03-17T01:51:08.484Z,3.30
2023-03-17T01:54:16.447Z,3.17
2023-03-17T01:57:21.279Z,3.20
2023-03-17T02:00:26.565Z,3.30
2023-03-17T02:03:29.821Z,2.97
2023-03-17T02:06:33.064Z,3.38
2023-03-17T02:09:37.133Z,3.38
2023-03-17T02:12:40.480Z,3.80
2023-03-17T02:15:44.967Z,2.85
2023-03-17T02:18:47.694Z,3.37
2023-03-17T02:21:53.297Z,3.17
2023-03-17T02:24:58.156Z,3.27
2023-03-17T02:28:03.443Z,3.57
2023-03-17T02:31:06.244Z,3.23
2023-03-17T02:34:08.912Z,3.70
2023-03-17T02:37:13.093Z,3.30
2023-03-17T02:40:16.588Z,2.97
2023-03-17T02:43:19.310Z,3.50
2023-03-17T02:46:21.944Z,3.30
2023-03-17T02:49:24.700Z,3.23
2023-03-17T02:52:28.685Z,3.10
2023-03-17T02:55:31.698Z,3.90
2023-03-17T02:58:34.240Z,4.18
2023-03-17T03:01:38.806Z,3.80
2023-03-17T03:04:41.802Z,3.20
2023-03-17T03:07:45.565Z,3.72
2023-03-17T03:13:50.361Z,3.97
2023-03-17T03:16:53.040Z,3.47
2023-03-17T03:19:55.555Z,3.33
2023-03-17T03:22:59.422Z,3.23
2023-03-17T03:29:05.311Z,3.00
2023-03-17T03:32:08.359Z,3.25
2023-03-17T03:35:11.546Z,3.47
2023-03-17T03:38:15.739Z,3.35
2023-03-17T03:41:18.251Z,3.47
2023-03-17T03:44:20.916Z,3.00
2023-03-17T03:47:23.419Z,3.57
2023-03-17T03:50:26.118Z,3.57
2023-03-17T03:53:30.336Z,3.20
2023-03-17T03:56:32.932Z,2.73
2023-03-17T03:59:35.401Z,4.00
2023-03-17T04:02:38.006Z,2.90
2023-03-17T04:05:40.630Z,4.00
2023-03-17T04:08:44.539Z,3.43
2023-03-17T04:14:49.497Z,4.07
2023-03-17T04:17:54.848Z,4.20
2023-03-17T04:20:57.379Z,4.20
2023-03-17T04:24:01.489Z,4.67
2023-03-17T04:27:05.996Z,4.83
2023-03-17T04:30:13.510Z,4.50
2023-03-17T04:33:16.329Z,3.80
2023-03-17T04:36:20.361Z,3.97
2023-03-17T04:39:24.166Z,4.33
2023-03-17T04:45:29.404Z,4.93
2023-03-17T04:48:32.608Z,5.57
2023-03-17T04:51:36.729Z,3.78
2023-03-17T04:54:40.945Z,4.57
2023-03-17T04:57:43.516Z,4.33
2023-03-17T05:00:46.018Z,5.33
2023-03-17T05:03:48.871Z,6.17
2023-03-17T05:06:51.867Z,4.27
2023-03-17T05:09:55.688Z,4.68
2023-03-17T05:16:01.461Z,4.47
2023-03-17T05:19:04.110Z,4.80
2023-03-17T05:22:07.175Z,4.93
2023-03-17T05:25:11.244Z,4.90
2023-03-17T05:28:14.052Z,5.00
2023-03-17T05:31:16.592Z,4.67
2023-03-17T05:34:19.134Z,4.83
2023-03-17T05:37:21.618Z,4.50
2023-03-17T05:40:25.508Z,4.87
2023-03-17T05:46:30.651Z,3.90
2023-03-17T05:49:33.177Z,3.70
2023-03-17T05:52:35.822Z,3.80
2023-03-17T05:55:40.603Z,4.00
2023-03-17T05:58:43.346Z,3.77
2023-03-17T06:01:46.258Z,4.00
2023-03-17T06:04:49.040Z,3.92
2023-03-17T06:07:56.089Z,4.43
2023-03-17T06:11:00.744Z,4.23
2023-03-17T06:14:03.299Z,3.80
2023-03-17T06:17:06.307Z,4.10
2023-03-17T06:20:11.741Z,3.55
2023-03-17T06:23:14.420Z,3.63
2023-03-17T06:26:18.294Z,3.90
2023-03-17T06:32:24.608Z,4.35
2023-03-17T06:35:27.598Z,3.80
2023-03-17T06:38:30.176Z,3.92
2023-03-17T06:41:34.178Z,3.60
2023-03-17T06:44:37.855Z,4.10
2023-03-17T06:47:40.354Z,3.92
2023-03-17T06:50:42.994Z,3.03
2023-03-17T06:53:45.714Z,3.43
2023-03-17T06:56:49.583Z,3.40
2023-03-17T07:02:54.929Z,3.60
2023-03-17T07:05:58.036Z,3.27
2023-03-17T07:09:02.302Z,3.72
2023-03-17T07:12:07.109Z,4.37
2023-03-17T07:15:12.456Z,3.50
2023-03-17T07:18:15.007Z,4.13
2023-03-17T07:21:17.635Z,4.37
2023-03-17T07:24:20.219Z,4.30
2023-03-17T07:27:25.366Z,4.73
2023-03-17T07:30:28.631Z,4.00
2023-03-17T07:33:33.763Z,3.88
2023-03-17T07:36:36.372Z,4.57
2023-03-17T07:39:39.817Z,3.97
2023-03-17T07:42:43.735Z,3.80
2023-03-17T07:45:46.989Z,3.87
2023-03-17T07:48:49.983Z,4.22
2023-03-17T07:51:52.456Z,4.13
2023-03-17T07:54:55.853Z,4.00
2023-03-17T07:58:00.400Z,4.07
2023-03-17T08:01:03.430Z,3.90
2023-03-17T08:04:07.511Z,5.32
2023-03-17T08:07:10.425Z,4.53
2023-03-17T08:10:13.917Z,3.90
2023-03-17T08:13:18.747Z,3.53
2023-03-17T08:16:21.945Z,3.60
2023-03-17T08:19:24.670Z,4.15
2023-03-17T08:22:27.749Z,3.90
2023-03-17T08:25:31.607Z,4.05
2023-03-17T08:28:36.232Z,4.00
2023-03-17T08:31:40.540Z,4.17
2023-03-17T08:34:44.470Z,3.13
2023-03-17T08:37:47.569Z,4.27
2023-03-17T08:40:50.878Z,3.38
2023-03-17T08:43:56.042Z,3.67
2023-03-17T08:46:58.532Z,3.70
2023-03-17T08:50:01.243Z,4.30
2023-03-17T08:53:04.293Z,4.40
2023-03-17T08:56:08.344Z,3.92
2023-03-17T08:59:12.407Z,4.07
2023-03-17T09:02:15.894Z,3.90
2023-03-17T09:08:22.589Z,3.50
2023-03-17T09:11:27.111Z,3.65
2023-03-17T09:14:40.095Z,3.90
2023-03-17T09:17:45.332Z,3.73
2023-03-17T09:20:48.002Z,3.50
2023-03-17T09:23:50.609Z,4.13
2023-03-17T09:26:53.125Z,3.90
2023-03-17T09:29:57.007Z,4.43
2023-03-17T09:33:00.531Z,3.60
2023-03-17T09:39:06.107Z,3.83
2023-03-17T09:42:20.327Z,3.95
2023-03-17T09:45:31.400Z,3.57
2023-03-17T09:48:51.333Z,4.57
2023-03-17T09:51:54.265Z,5.13
2023-03-17T09:54:57.386Z,3.40
2023-03-17T09:58:00.776Z,3.72
2023-03-17T10:01:05.331Z,3.58
2023-03-17T10:04:09.369Z,3.20
2023-03-17T10:07:13.458Z,3.27
2023-03-17T10:10:21.926Z,3.50
2023-03-17T10:13:30.663Z,3.20
2023-03-17T10:16:42.568Z,3.20
2023-03-17T10:19:47.040Z,2.87
2023-03-17T10:22:52.888Z,2.73
2023-03-17T10:25:56.630Z,2.70
2023-03-17T10:28:59.805Z,2.70
2023-03-17T10:32:04.195Z,3.40
2023-03-17T10:35:08.026Z,3.40
2023-03-17T10:38:16.920Z,2.70
2023-03-17T10:41:19.401Z,3.00
2023-03-17T10:44:24.678Z,2.60
2023-03-17T10:47:32.121Z,2.60
2023-03-17T10:50:37.706Z,3.00
2023-03-17T10:53:43.337Z,2.80
2023-03-17T10:56:48.060Z,3.70
2023-03-17T10:59:55.597Z,2.43
2023-03-17T11:03:00.793Z,2.60
2023-03-17T11:06:05.303Z,1.80
2023-03-17T11:09:11.035Z,1.97
2023-03-17T11:12:23.876Z,2.17
2023-03-17T11:15:30.092Z,1.67
2023-03-17T11:18:37.261Z,1.60
2023-03-17T11:21:48.594Z,2.33
2023-03-17T11:24:59.370Z,2.63
2023-03-17T11:28:16.253Z,2.07
2023-03-17T11:31:27.996Z,1.93
2023-03-17T11:34:45.281Z,1.70
2023-03-17T11:38:00.847Z,3.10
2023-03-17T11:41:21.353Z,1.67
2023-03-17T11:44:59.593Z,2.10
2023-03-17T11:48:16.310Z,2.03
2023-03-17T11:51:27.585Z,1.80
2023-03-17T11:54:40.181Z,1.70
2023-03-17T11:57:45.906Z,1.63
2023-03-17T12:00:52.609Z,1.60
2023-03-17T12:04:10.767Z,1.73
2023-03-17T12:07:20.706Z,1.70
2023-03-17T12:10:25.658Z,1.60
2023-03-17T12:13:32.581Z,1.27
2023-03-17T12:16:39.663Z,1.20
2023-03-17T12:19:45.369Z,1.77
2023-03-17T12:22:55.908Z,1.83
2023-03-17T12:26:03.753Z,1.73
2023-03-17T12:29:12.590Z,1.80
2023-03-17T12:32:20.954Z,1.47
2023-03-17T12:35:27.886Z,1.70
2023-03-17T12:38:37.202Z,1.97
2023-03-17T12:42:02.836Z,2.07
2023-03-17T12:45:25.529Z,1.20
2023-03-17T12:48:47.293Z,1.13
2023-03-17T12:51:58.170Z,1.37
2023-03-17T12:55:04.053Z,1.33
2023-03-17T12:58:16.253Z,1.30
2023-03-17T13:01:26.865Z,1.10
2023-03-17T13:04:32.931Z,0.80
2023-03-17T13:07:38.870Z,1.00
2023-03-17T13:10:44.383Z,1.23
2023-03-17T13:13:59.138Z,1.40
2023-03-17T13:17:05.534Z,1.27
2023-03-17T13:20:16.034Z,1.13
2023-03-17T13:23:21.634Z,6.83
2023-03-17T13:26:56.275Z,1.50
2023-03-17T13:29:59.026Z,1.50
2023-03-17T13:33:23.130Z,1.55
2023-03-17T13:36:34.577Z,1.20
2023-03-17T13:40:00.876Z,1.63
2023-03-17T13:43:12.979Z,1.50
2023-03-17T13:46:26.510Z,1.30
2023-03-17T13:49:32.056Z,1.00
2023-03-17T13:52:41.114Z,1.20
2023-03-17T13:56:24.692Z,1.10
2023-03-17T13:59:36.831Z,1.20
2023-03-17T14:02:40.791Z,1.07
2023-03-17T14:05:44.293Z,1.30
2023-03-17T14:08:49.246Z,1.13
2023-03-17T14:11:52.042Z,1.10
2023-03-17T14:14:58.499Z,1.05
2023-03-17T14:18:04.353Z,1.23
2023-03-17T14:21:11.635Z,1.20
2023-03-17T14:24:23.041Z,0.90
2023-03-17T14:27:26.482Z,1.63
2023-03-17T14:30:32.534Z,1.30
2023-03-17T14:33:38.370Z,1.70
2023-03-17T14:36:41.483Z,1.92
2023-03-17T14:39:45.853Z,1.92
2023-03-17T14:42:48.355Z,1.30
2023-03-17T14:45:53.935Z,0.80
2023-03-17T14:48:59.207Z,0.90
2023-03-17T14:52:02.578Z,1.27
2023-03-17T14:55:06.757Z,0.90
2023-03-17T14:58:11.013Z,1.20
2023-03-17T15:01:17.319Z,1.33
2023-03-17T15:04:21.502Z,1.17
2023-03-17T15:07:33.196Z,1.13
2023-03-17T15:10:42.919Z,0.80
2023-03-17T15:13:45.523Z,1.13
2023-03-17T15:16:52.391Z,0.60
2023-03-17T15:19:57.646Z,0.73
2023-03-17T15:23:01.724Z,0.80
2023-03-17T15:26:09.848Z,0.80
2023-03-17T15:29:12.420Z,0.70
2023-03-17T15:32:19.299Z,0.80
2023-03-17T15:35:21.785Z,1.00
2023-03-17T15:38:24.712Z,1.63
2023-03-17T15:41:27.185Z,1.00
2023-03-17T15:44:29.916Z,1.00
2023-03-17T15:47:35.295Z,0.70
2023-03-17T15:50:39.251Z,1.13
2023-03-17T15:53:41.749Z,0.70
2023-03-17T15:56:44.475Z,1.58
2023-03-17T15:59:47.094Z,1.30
2023-03-17T16:02:53.882Z,1.20
2023-03-17T16:05:56.736Z,1.93
2023-03-17T16:08:59.258Z,2.67
2023-03-17T16:12:02.949Z,2.00
2023-03-17T16:15:20.191Z,2.50
2023-03-17T16:18:32.499Z,2.60
2023-03-17T16:21:35.004Z,2.60
2023-03-17T16:24:37.524Z,2.78
2023-03-17T16:27:40.048Z,2.00
2023-03-17T16:30:43.057Z,2.53
2023-03-17T16:33:48.388Z,2.38
2023-03-17T16:36:51.421Z,2.43
2023-03-17T16:39:54.075Z,2.70
2023-03-17T16:42:57.686Z,1.50
2023-03-17T16:46:02.561Z,2.60
2023-03-17T16:49:06.709Z,3.07
2023-03-17T16:52:10.488Z,2.23
2023-03-17T16:55:13.581Z,2.37
2023-03-17T16:58:18.131Z,2.80
2023-03-17T17:01:23.550Z,2.80
2023-03-17T17:04:27.588Z,2.07
2023-03-17T17:07:30.131Z,1.93
2023-03-17T17:10:34.135Z,1.95
2023-03-17T17:13:38.142Z,1.70
2023-03-17T17:16:41.113Z,2.00
2023-03-17T17:19:45.415Z,2.35
2023-03-17T17:22:48.517Z,2.07
2023-03-17T17:25:51.601Z,2.08
2023-03-17T17:28:54.265Z,1.77
2023-03-17T17:31:56.821Z,1.90
2023-03-17T17:35:00.816Z,1.50
2023-03-17T17:38:03.460Z,1.60
2023-03-17T17:41:08.847Z,1.77
2023-03-17T17:44:11.312Z,2.20
2023-03-17T17:47:14.065Z,2.60
2023-03-17T17:50:21.114Z,2.28
2023-03-17T17:53:23.886Z,2.77
2023-03-17T17:56:26.706Z,2.75
2023-03-17T17:59:29.414Z,2.60
2023-03-17T18:02:31.964Z,3.80
2023-03-17T18:05:36.837Z,3.00
2023-03-17T18:08:39.829Z,2.87
2023-03-17T18:11:42.591Z,2.65
2023-03-17T18:14:45.281Z,4.00
2023-03-17T18:17:47.903Z,3.72
2023-03-17T18:20:52.476Z,2.75
2023-03-17T18:23:55.765Z,3.30
2023-03-17T18:26:58.239Z,2.85
2023-03-17T18:30:00.822Z,3.13
2023-03-17T18:33:07.559Z,3.75
2023-03-17T18:36:12.115Z,3.30
2023-03-17T18:39:15.283Z,2.90
2023-03-17T18:42:17.988Z,2.58
2023-03-17T18:45:20.659Z,4.40
2023-03-17T18:48:23.158Z,4.50
2023-03-17T18:51:27.048Z,3.30
2023-03-17T18:54:31.559Z,3.60
2023-03-17T18:57:34.537Z,2.77
2023-03-17T19:00:37.060Z,3.20
2023-03-17T19:03:39.543Z,4.20
2023-03-17T19:06:43.448Z,3.87
2023-03-17T19:09:46.208Z,2.63
2023-03-17T19:12:50.505Z,2.53
2023-03-17T19:15:53.372Z,2.90
2023-03-17T19:18:56.755Z,4.03
2023-03-17T19:22:00.823Z,4.45
2023-03-17T19:25:04.279Z,5.00
2023-03-17T19:31:10.235Z,8.57
2023-03-17T19:34:15.303Z,5.70
2023-03-17T19:37:19.286Z,3.40
2023-03-17T19:40:22.330Z,5.00
2023-03-17T19:43:39.451Z,4.80
2023-03-17T19:46:42.807Z,4.83
2023-03-17T19:49:45.873Z,4.32
2023-03-17T19:52:52.342Z,4.07
2023-03-17T19:55:56.611Z,4.40
2023-03-17T19:58:59.330Z,4.80
2023-03-17T20:02:02.129Z,5.93
2023-03-17T20:05:05.176Z,6.45
2023-03-17T20:08:09.479Z,8.75
2023-03-17T20:11:13.275Z,15.43
2023-03-17T20:14:15.924Z,7.77
2023-03-17T20:17:18.692Z,6.55
2023-03-17T20:20:21.253Z,8.40
2023-03-17T20:23:25.940Z,5.30
2023-03-17T20:26:28.736Z,3.40
2023-03-17T20:29:31.499Z,4.15
2023-03-17T20:32:34.392Z,5.43
2023-03-17T20:35:37.488Z,3.63
2023-03-17T20:38:43.634Z,2.78
2023-03-17T20:41:46.544Z,2.90
2023-03-17T20:44:52.783Z,4.20
2023-03-17T20:47:56.004Z,4.30
2023-03-17T20:50:59.352Z,2.90
2023-03-17T20:54:03.758Z,2.88
2023-03-17T20:57:07.269Z,2.57
2023-03-17T21:03:15.025Z,2.43
2023-03-17T21:06:18.599Z,2.90
2023-03-17T21:12:26.103Z,4.00
2023-03-17T21:15:29.490Z,3.57
2023-03-17T21:18:31.928Z,4.00
2023-03-17T21:21:35.013Z,3.73
2023-03-17T21:24:39.739Z,3.28
2023-03-17T21:27:42.663Z,3.60
2023-03-17T21:30:45.495Z,3.10
2023-03-17T21:33:50.327Z,2.85
2023-03-17T21:36:52.983Z,4.40
2023-03-17T21:39:57.582Z,3.03
2023-03-17T21:43:00.957Z,3.20
2023-03-17T21:46:03.502Z,3.50
2023-03-17T21:49:06.580Z,3.03
2023-03-17T21:52:09.741Z,3.38
2023-03-17T21:55:13.825Z,2.85
2023-03-17T21:58:16.513Z,2.60
2023-03-17T22:01:21.687Z,2.72
2023-03-17T22:04:25.919Z,2.23
2023-03-17T22:07:29.190Z,1.70
2023-03-17T22:10:33.545Z,2.13
2023-03-17T22:13:36.356Z,2.20
2023-03-17T22:16:39.879Z,2.03
2023-03-17T22:22:46.431Z,2.33
2023-03-17T22:25:50.606Z,1.80
2023-03-17T22:28:53.114Z,2.20
2023-03-17T22:31:55.711Z,2.97
2023-03-17T22:34:58.325Z,2.43
2023-03-17T22:38:01.508Z,2.87
2023-03-17T22:41:07.849Z,2.58
2023-03-17T22:44:11.369Z,3.33
2023-03-17T22:47:13.944Z,3.80
2023-03-17T22:50:16.953Z,4.87
2023-03-17T22:53:19.484Z,4.38
2023-03-17T22:56:23.426Z,5.27
2023-03-17T22:59:25.942Z,6.00
2023-03-17T23:02:28.527Z,7.63
2023-03-17T23:05:31.045Z,4.77
2023-03-17T23:08:35.431Z,2.73
2023-03-17T23:11:40.306Z,2.70
2023-03-17T23:14:43.602Z,1.60
2023-03-17T23:17:46.267Z,2.15
2023-03-17T23:20:49.339Z,1.90
2023-03-17T23:23:51.920Z,2.45
2023-03-17T23:26:55.856Z,2.83
2023-03-17T23:29:59.194Z,4.30
2023-03-17T23:33:01.871Z,2.00
2023-03-17T23:36:04.613Z,1.00
2023-03-17T23:39:07.503Z,2.15
2023-03-17T23:42:11.616Z,1.50
2023-03-17T23:45:15.159Z,1.23
2023-03-17T23:51:20.271Z,1.10
2023-03-17T23:54:22.889Z,1.17
2023-03-17T23:57:26.774Z,1.30
